createdAt,value
2023-05-21T00:01:48.524Z,96.28
2023-05-21T00:04:15.869Z,96.38
2023-05-21T00:06:42.798Z,96.44
2023-05-21T00:09:10.715Z,96.19
2023-05-21T00:11:37.579Z,96.18
2023-05-21T00:14:04.473Z,96.20
2023-05-21T00:16:31.365Z,96.08
2023-05-21T00:18:58.497Z,95.21
2023-05-21T00:21:26.350Z,95.26
2023-05-21T00:23:54.411Z,94.59
2023-05-21T00:26:21.773Z,94.75
2023-05-21T00:28:48.785Z,95.21
2023-05-21T00:31:17.365Z,95.13
2023-05-21T00:33:44.525Z,94.91
2023-05-21T00:36:14.542Z,96.36
2023-05-21T00:38:43.866Z,96.03
2023-05-21T00:41:11.525Z,96.03
2023-05-21T00:43:42.301Z,95.80
2023-05-21T00:46:16.738Z,95.90
2023-05-21T00:48:48.046Z,96.14
2023-05-21T00:51:16.668Z,96.24
2023-05-21T00:53:45.133Z,97.72
2023-05-21T00:56:12.353Z,96.45
2023-05-21T00:58:40.390Z,97.94
2023-05-21T01:01:07.387Z,97.66
2023-05-21T01:03:38.588Z,97.25
2023-05-21T01:06:06.609Z,97.08
2023-05-21T01:08:37.746Z,96.68
2023-05-21T01:11:06.480Z,96.64
2023-05-21T01:13:37.043Z,96.76
2023-05-21T01:16:06.789Z,96.88
2023-05-21T01:18:35.387Z,97.13
2023-05-21T01:21:02.796Z,97.10
2023-05-21T01:23:30.013Z,97.07
2023-05-21T01:25:57.034Z,97.37
2023-05-21T01:28:23.893Z,97.45
2023-05-21T01:30:51.110Z,97.56
2023-05-21T01:33:41.916Z,97.71
2023-05-21T01:36:26.873Z,97.76
2023-05-21T01:39:21.318Z,98.23
2023-05-21T01:41:51.232Z,98.43
2023-05-21T01:44:19.245Z,98.46
2023-05-21T01:46:46.506Z,98.47
2023-05-21T01:49:14.526Z,98.51
2023-05-21T01:51:41.541Z,98.69
2023-05-21T01:54:08.585Z,98.94
2023-05-21T01:56:37.053Z,99.11
2023-05-21T01:59:04.175Z,98.94
2023-05-21T02:01:31.569Z,99.43
2023-05-21T02:03:58.687Z,99.92
2023-05-21T02:06:25.882Z,99.82
2023-05-21T02:08:52.775Z,100.00
2023-05-21T02:11:20.135Z,100.00
2023-05-21T02:13:47.173Z,100.00
2023-05-21T02:16:16.029Z,100.00
2023-05-21T02:18:46.605Z,100.00
2023-05-21T02:21:13.592Z,100.00
2023-05-21T02:23:41.850Z,100.00
2023-05-21T02:26:08.844Z,100.00
2023-05-21T02:28:36.475Z,100.00
2023-05-21T02:31:04.107Z,100.00
2023-05-21T02:33:31.310Z,100.00
2023-05-21T02:35:58.782Z,100.00
2023-05-21T02:38:25.957Z,100.00
2023-05-21T02:40:53.238Z,100.00
2023-05-21T02:43:20.712Z,100.00
2023-05-21T02:45:47.976Z,100.00
2023-05-21T02:48:15.114Z,100.00
2023-05-21T02:50:42.235Z,100.00
2023-05-21T02:53:09.195Z,100.00
2023-05-21T02:55:36.350Z,100.00
2023-05-21T02:58:03.609Z,100.00
2023-05-21T03:00:30.956Z,100.00
2023-05-21T03:02:58.018Z,100.00
2023-05-21T03:05:25.027Z,100.00
2023-05-21T03:07:53.439Z,100.00
2023-05-21T03:10:20.405Z,100.00
2023-05-21T03:12:47.444Z,100.00
2023-05-21T03:15:15.087Z,100.00
2023-05-21T03:17:44.871Z,100.00
2023-05-21T03:20:18.719Z,100.00
2023-05-21T03:22:46.675Z,100.00
2023-05-21T03:25:13.691Z,100.00
2023-05-21T03:27:40.854Z,100.00
2023-05-21T03:30:08.315Z,100.00
2023-05-21T03:32:38.012Z,100.00
2023-05-21T03:35:05.967Z,100.00
2023-05-21T03:37:32.925Z,100.00
2023-05-21T03:39:59.948Z,100.00
2023-05-21T03:42:26.934Z,100.00
2023-05-21T03:44:53.929Z,100.00
2023-05-21T03:47:21.507Z,100.00
2023-05-21T03:49:48.644Z,100.00
2023-05-21T03:52:15.736Z,100.00
2023-05-21T03:54:42.810Z,100.00
2023-05-21T03:57:10.107Z,100.00
2023-05-21T03:59:37.042Z,100.00
2023-05-21T04:02:04.138Z,100.00
2023-05-21T04:04:31.015Z,100.00
2023-05-21T04:06:57.973Z,100.00
2023-05-21T04:09:25.086Z,100.00
2023-05-21T04:11:52.013Z,100.00
2023-05-21T04:14:19.040Z,100.00
2023-05-21T04:16:46.060Z,100.00
2023-05-21T04:19:13.123Z,100.00
2023-05-21T04:21:40.465Z,100.00
2023-05-21T04:24:07.791Z,99.92
2023-05-21T04:26:35.425Z,100.00
2023-05-21T04:29:05.152Z,100.00
2023-05-21T04:31:32.618Z,100.00
2023-05-21T04:33:59.617Z,100.00
2023-05-21T04:36:29.041Z,100.00
2023-05-21T04:38:56.216Z,99.78
2023-05-21T04:41:23.173Z,99.03
2023-05-21T04:43:55.184Z,97.74
2023-05-21T04:46:25.639Z,96.70
2023-05-21T04:48:55.776Z,94.44
2023-05-21T04:51:24.777Z,93.58
2023-05-21T04:53:52.086Z,94.18
2023-05-21T04:56:19.362Z,92.60
2023-05-21T04:58:48.088Z,91.91
2023-05-21T05:01:16.052Z,91.22
2023-05-21T05:03:43.140Z,92.72
2023-05-21T05:06:10.181Z,92.00
2023-05-21T05:08:37.137Z,92.73
2023-05-21T05:11:04.285Z,92.45
2023-05-21T05:13:31.409Z,91.73
2023-05-21T05:15:58.470Z,91.58
2023-05-21T05:18:25.533Z,91.60
2023-05-21T05:20:52.742Z,91.89
2023-05-21T05:23:19.686Z,91.69
2023-05-21T05:25:46.973Z,91.38
2023-05-21T05:28:13.967Z,91.74
2023-05-21T05:30:40.911Z,90.25
2023-05-21T05:33:07.958Z,89.17
2023-05-21T05:35:35.170Z,88.58
2023-05-21T05:38:02.437Z,89.20
2023-05-21T05:40:29.349Z,89.02
2023-05-21T05:42:56.368Z,88.74
2023-05-21T05:45:23.317Z,88.79
2023-05-21T05:47:50.329Z,88.07
2023-05-21T05:50:17.524Z,86.31
2023-05-21T05:52:44.450Z,86.03
2023-05-21T05:55:12.266Z,86.52
2023-05-21T05:57:39.203Z,87.01
2023-05-21T06:00:07.051Z,87.21
2023-05-21T06:02:34.107Z,87.20
2023-05-21T06:05:01.443Z,86.04
2023-05-21T06:07:28.470Z,85.90
2023-05-21T06:09:55.755Z,85.15
2023-05-21T06:12:23.138Z,84.93
2023-05-21T06:14:51.030Z,84.50
2023-05-21T06:17:18.112Z,82.87
2023-05-21T06:19:45.880Z,82.63
2023-05-21T06:22:12.854Z,79.62
2023-05-21T06:24:39.960Z,78.71
2023-05-21T06:27:07.074Z,78.76
2023-05-21T06:29:33.996Z,78.03
2023-05-21T06:32:01.780Z,78.73
2023-05-21T06:34:31.595Z,76.93
2023-05-21T06:36:58.703Z,71.41
2023-05-21T06:39:27.223Z,75.21
2023-05-21T06:41:54.557Z,72.34
2023-05-21T06:44:21.378Z,73.73
2023-05-21T06:46:48.320Z,71.03
2023-05-21T06:49:15.530Z,71.30
2023-05-21T06:51:42.556Z,70.60
2023-05-21T06:54:09.409Z,67.14
2023-05-21T06:56:36.300Z,67.76
2023-05-21T06:59:03.222Z,67.89
2023-05-21T07:01:30.862Z,67.40
2023-05-21T07:03:58.221Z,66.44
2023-05-21T07:06:25.086Z,66.33
2023-05-21T07:08:52.150Z,66.44
2023-05-21T07:11:19.197Z,66.72
2023-05-21T07:13:46.124Z,66.08
2023-05-21T07:16:13.407Z,67.04
2023-05-21T07:18:40.524Z,65.31
2023-05-21T07:21:08.815Z,67.84
2023-05-21T07:23:36.155Z,65.64
2023-05-21T07:26:03.131Z,65.47
2023-05-21T07:28:30.152Z,63.67
2023-05-21T07:30:57.719Z,64.46
2023-05-21T07:33:24.968Z,62.62
2023-05-21T07:35:52.478Z,62.91
2023-05-21T07:38:19.405Z,62.62
2023-05-21T07:40:46.362Z,62.25
2023-05-21T07:43:13.417Z,63.22
2023-05-21T07:45:40.572Z,61.13
2023-05-21T07:48:07.556Z,60.70
2023-05-21T07:50:34.498Z,59.64
2023-05-21T07:53:01.652Z,59.80
2023-05-21T07:55:28.734Z,60.68
2023-05-21T07:57:56.401Z,61.74
2023-05-21T08:00:24.437Z,61.21
2023-05-21T08:02:52.491Z,59.54
2023-05-21T08:05:21.303Z,60.56
2023-05-21T08:07:48.259Z,60.87
2023-05-21T08:10:17.093Z,60.76
2023-05-21T08:12:45.439Z,57.54
2023-05-21T08:15:12.327Z,57.54
2023-05-21T08:17:39.212Z,56.94
2023-05-21T08:20:07.145Z,55.04
2023-05-21T08:22:34.027Z,55.92
2023-05-21T08:25:01.664Z,54.21
2023-05-21T08:27:28.620Z,54.66
2023-05-21T08:29:56.048Z,53.05
2023-05-21T08:32:23.213Z,53.97
2023-05-21T08:34:50.293Z,53.46
2023-05-21T08:37:18.494Z,54.35
2023-05-21T08:39:45.425Z,54.03
2023-05-21T08:42:35.486Z,54.06
2023-05-21T08:45:06.831Z,53.06
2023-05-21T08:47:36.208Z,53.18
2023-05-21T08:50:11.003Z,52.69
2023-05-21T08:52:38.226Z,52.33
2023-05-21T08:55:06.097Z,52.08
2023-05-21T08:57:33.150Z,50.77
2023-05-21T09:00:02.012Z,49.71
2023-05-21T09:02:34.378Z,48.57
2023-05-21T09:05:03.669Z,45.58
2023-05-21T09:07:31.849Z,45.86
2023-05-21T09:10:03.984Z,45.26
2023-05-21T09:12:32.165Z,44.12
2023-05-21T09:15:00.314Z,43.87
2023-05-21T09:17:27.410Z,42.54
2023-05-21T09:20:16.582Z,42.49
2023-05-21T09:22:48.554Z,41.21
2023-05-21T09:25:17.375Z,41.03
2023-05-21T09:27:44.727Z,41.49
2023-05-21T09:30:14.499Z,40.34
2023-05-21T09:32:42.232Z,40.35
2023-05-21T09:35:16.395Z,40.65
2023-05-21T09:37:45.071Z,40.89
2023-05-21T09:40:16.383Z,39.43
2023-05-21T09:42:47.090Z,40.46
2023-05-21T09:45:25.524Z,39.23
2023-05-21T09:47:54.011Z,38.50
2023-05-21T09:50:21.893Z,39.52
2023-05-21T09:52:50.981Z,37.63
2023-05-21T09:55:17.889Z,36.85
2023-05-21T09:57:50.562Z,37.45
2023-05-21T10:00:20.214Z,36.73
2023-05-21T10:02:48.875Z,36.78
2023-05-21T10:05:17.050Z,36.55
2023-05-21T10:07:51.456Z,35.79
2023-05-21T10:10:22.836Z,34.64
2023-05-21T10:12:58.876Z,36.37
2023-05-21T10:15:28.597Z,35.62
2023-05-21T10:17:56.453Z,35.38
2023-05-21T10:20:24.374Z,34.66
2023-05-21T10:22:51.897Z,34.49
2023-05-21T10:25:19.869Z,33.01
2023-05-21T10:27:48.378Z,33.82
2023-05-21T10:30:17.460Z,34.38
2023-05-21T10:32:46.941Z,34.16
2023-05-21T10:35:18.626Z,34.39
2023-05-21T10:37:46.038Z,33.58
2023-05-21T10:40:13.829Z,32.30
2023-05-21T10:43:15.573Z,32.71
2023-05-21T10:45:54.217Z,31.88
2023-05-21T10:48:27.201Z,32.06
2023-05-21T10:51:03.315Z,31.12
2023-05-21T10:53:42.593Z,31.16
2023-05-21T10:56:28.798Z,30.46
2023-05-21T10:59:29.978Z,30.94
2023-05-21T11:01:57.715Z,31.04
2023-05-21T11:04:28.094Z,30.21
2023-05-21T11:06:56.434Z,30.16
2023-05-21T11:09:23.527Z,30.43
2023-05-21T11:11:58.277Z,31.85
2023-05-21T11:14:39.650Z,31.56
2023-05-21T11:17:06.902Z,30.38
2023-05-21T11:19:47.150Z,28.90
2023-05-21T11:22:20.000Z,29.07
2023-05-21T11:24:48.839Z,30.03
2023-05-21T11:27:41.244Z,29.33
2023-05-21T11:30:10.791Z,29.09
2023-05-21T11:33:01.722Z,28.64
2023-05-21T11:35:28.864Z,28.70
2023-05-21T11:37:55.822Z,28.30
2023-05-21T11:40:27.329Z,29.27
2023-05-21T11:42:56.018Z,28.02
2023-05-21T11:45:28.237Z,28.24
2023-05-21T11:47:56.418Z,27.53
2023-05-21T11:50:23.535Z,27.84
2023-05-21T11:52:51.137Z,26.40
2023-05-21T11:55:26.028Z,27.44
2023-05-21T11:57:54.444Z,26.78
2023-05-21T12:00:21.867Z,26.88
2023-05-21T12:02:52.327Z,26.17
2023-05-21T12:05:19.545Z,26.42
2023-05-21T12:07:49.004Z,26.19
2023-05-21T12:10:16.342Z,27.22
2023-05-21T12:12:54.027Z,27.15
2023-05-21T12:15:22.942Z,26.33
2023-05-21T12:17:52.948Z,27.16
2023-05-21T12:20:20.431Z,25.72
2023-05-21T12:22:49.353Z,26.93
2023-05-21T12:25:20.358Z,25.89
2023-05-21T12:27:49.846Z,26.19
2023-05-21T12:30:16.921Z,27.66
2023-05-21T12:32:44.503Z,26.78
2023-05-21T12:35:21.640Z,26.15
2023-05-21T12:37:50.919Z,25.28
2023-05-21T12:40:18.435Z,26.13
2023-05-21T12:42:45.595Z,26.71
2023-05-21T12:45:13.359Z,25.59
2023-05-21T12:47:40.310Z,25.73
2023-05-21T12:50:14.146Z,24.76
2023-05-21T12:52:43.106Z,24.77
2023-05-21T12:55:15.413Z,23.91
2023-05-21T12:57:44.032Z,23.20
2023-05-21T13:00:12.081Z,24.84
2023-05-21T13:02:41.410Z,24.92
2023-05-21T13:05:11.159Z,24.37
2023-05-21T13:07:39.859Z,23.93
2023-05-21T13:10:07.880Z,24.14
2023-05-21T13:12:36.069Z,24.10
2023-05-21T13:15:04.908Z,23.11
2023-05-21T13:17:32.065Z,23.69
2023-05-21T13:20:15.557Z,25.41
2023-05-21T13:22:52.199Z,26.55
2023-05-21T13:25:29.966Z,25.11
2023-05-21T13:27:58.207Z,24.85
2023-05-21T13:30:25.389Z,23.54
2023-05-21T13:32:52.575Z,22.21
2023-05-21T13:35:20.209Z,23.02
2023-05-21T13:37:47.189Z,23.58
2023-05-21T13:40:15.990Z,24.27
2023-05-21T13:42:45.544Z,22.86
2023-05-21T13:45:14.412Z,23.32
2023-05-21T13:47:42.666Z,23.27
2023-05-21T13:50:09.864Z,22.38
2023-05-21T13:52:37.772Z,22.45
2023-05-21T13:55:05.995Z,22.04
2023-05-21T13:57:33.512Z,22.28
2023-05-21T14:00:01.412Z,22.80
2023-05-21T14:02:28.875Z,22.26
2023-05-21T14:04:55.908Z,21.92
2023-05-21T14:07:22.855Z,22.22
2023-05-21T14:09:49.981Z,22.24
2023-05-21T14:12:17.251Z,21.62
2023-05-21T14:14:44.556Z,22.04
2023-05-21T14:17:11.671Z,21.37
2023-05-21T14:19:38.592Z,21.96
2023-05-21T14:22:05.653Z,22.83
2023-05-21T14:24:32.691Z,24.33
2023-05-21T14:26:59.685Z,23.76
2023-05-21T14:29:26.683Z,24.46
2023-05-21T14:31:53.724Z,24.88
2023-05-21T14:34:20.980Z,26.18
2023-05-21T14:36:47.861Z,25.32
2023-05-21T14:39:14.815Z,24.97
2023-05-21T14:41:41.848Z,24.52
2023-05-21T14:44:09.053Z,24.65
2023-05-21T14:46:36.913Z,24.31
2023-05-21T14:49:04.052Z,24.28
2023-05-21T14:51:31.839Z,23.60
2023-05-21T14:53:59.223Z,23.74
2023-05-21T14:56:27.892Z,24.34
2023-05-21T14:58:55.148Z,23.72
2023-05-21T15:01:22.258Z,23.82
2023-05-21T15:03:52.572Z,23.09
2023-05-21T15:06:19.930Z,23.51
2023-05-21T15:08:46.817Z,22.95
2023-05-21T15:11:13.784Z,22.77
2023-05-21T15:13:40.611Z,24.04
2023-05-21T15:16:08.067Z,25.18
2023-05-21T15:18:35.491Z,24.15
2023-05-21T15:21:02.537Z,25.33
2023-05-21T15:23:29.554Z,24.59
2023-05-21T15:25:56.549Z,24.04
2023-05-21T15:28:23.513Z,24.37
2023-05-21T15:30:50.533Z,25.20
2023-05-21T15:33:17.707Z,25.89
2023-05-21T15:35:45.050Z,27.15
2023-05-21T15:38:12.297Z,27.20
2023-05-21T15:40:41.469Z,26.95
2023-05-21T15:43:08.455Z,28.29
2023-05-21T15:45:35.785Z,29.29
2023-05-21T15:48:03.016Z,29.60
2023-05-21T15:50:30.059Z,30.00
2023-05-21T15:52:57.021Z,30.90
2023-05-21T15:55:24.051Z,31.38
2023-05-21T15:57:51.044Z,32.49
2023-05-21T16:00:18.364Z,31.79
2023-05-21T16:02:45.505Z,32.22
2023-05-21T16:05:12.564Z,32.03
2023-05-21T16:07:39.424Z,31.73
2023-05-21T16:10:11.116Z,32.62
2023-05-21T16:12:38.343Z,33.37
2023-05-21T16:15:06.585Z,33.14
2023-05-21T16:17:33.512Z,33.30
2023-05-21T16:20:00.566Z,33.54
2023-05-21T16:22:27.609Z,33.38
2023-05-21T16:24:54.678Z,33.38
2023-05-21T16:27:21.759Z,33.12
2023-05-21T16:29:48.761Z,33.44
2023-05-21T16:32:16.077Z,33.47
2023-05-21T16:34:43.153Z,34.15
2023-05-21T16:37:10.106Z,34.08
2023-05-21T16:39:37.299Z,34.18
2023-05-21T16:42:04.738Z,34.66
2023-05-21T16:44:32.313Z,34.78
2023-05-21T16:47:00.086Z,34.92
2023-05-21T16:49:27.990Z,35.39
2023-05-21T16:51:55.163Z,35.74
2023-05-21T16:54:22.234Z,35.88
2023-05-21T16:56:49.232Z,35.90
2023-05-21T16:59:16.492Z,36.61
2023-05-21T17:01:43.748Z,37.06
2023-05-21T17:04:11.148Z,37.00
2023-05-21T17:06:38.093Z,37.33
2023-05-21T17:09:05.049Z,37.63
2023-05-21T17:11:32.206Z,37.89
2023-05-21T17:13:59.420Z,38.49
2023-05-21T17:16:26.745Z,38.46
2023-05-21T17:18:53.839Z,39.01
2023-05-21T17:21:20.818Z,39.77
2023-05-21T17:23:47.772Z,39.81
2023-05-21T17:26:15.265Z,40.59
2023-05-21T17:28:43.196Z,40.55
2023-05-21T17:31:10.443Z,41.06
2023-05-21T17:33:38.006Z,41.80
2023-05-21T17:36:05.171Z,42.52
2023-05-21T17:38:32.129Z,42.79
2023-05-21T17:40:59.469Z,43.26
2023-05-21T17:43:31.912Z,43.66
2023-05-21T17:45:59.088Z,43.61
2023-05-21T17:48:26.556Z,44.27
2023-05-21T17:50:53.692Z,45.28
2023-05-21T17:53:20.747Z,45.95
2023-05-21T17:55:47.748Z,46.79
2023-05-21T17:58:14.764Z,47.68
2023-05-21T18:00:41.899Z,48.31
2023-05-21T18:03:09.493Z,49.01
2023-05-21T18:05:37.110Z,49.71
2023-05-21T18:08:04.846Z,49.61
2023-05-21T18:10:31.762Z,50.55
2023-05-21T18:12:59.012Z,51.61
2023-05-21T18:15:26.518Z,52.62
2023-05-21T18:17:53.830Z,53.25
2023-05-21T18:20:21.094Z,54.15
2023-05-21T18:22:48.796Z,55.12
2023-05-21T18:25:16.105Z,55.90
2023-05-21T18:27:43.828Z,57.28
2023-05-21T18:30:12.316Z,59.88
2023-05-21T18:32:40.452Z,59.46
2023-05-21T18:35:11.161Z,59.66
2023-05-21T18:37:42.855Z,60.73
2023-05-21T18:40:12.432Z,60.78
2023-05-21T18:42:40.880Z,61.53
2023-05-21T18:45:11.818Z,62.76
2023-05-21T18:47:40.563Z,62.83
2023-05-21T18:50:14.280Z,63.29
2023-05-21T18:52:42.273Z,63.74
2023-05-21T18:55:10.594Z,64.36
2023-05-21T18:57:39.510Z,64.55
2023-05-21T19:00:09.795Z,65.57
2023-05-21T19:02:38.381Z,66.19
2023-05-21T19:05:07.881Z,66.16
2023-05-21T19:07:36.475Z,67.43
2023-05-21T19:10:05.219Z,67.15
2023-05-21T19:12:35.865Z,67.95
2023-05-21T19:15:04.426Z,69.54
2023-05-21T19:17:35.406Z,69.80
2023-05-21T19:20:05.454Z,71.29
2023-05-21T19:22:37.349Z,71.10
2023-05-21T19:25:06.925Z,71.73
2023-05-21T19:27:35.077Z,71.65
2023-05-21T19:30:04.260Z,72.98
2023-05-21T19:32:32.298Z,73.68
2023-05-21T19:35:00.508Z,74.17
2023-05-21T19:37:28.402Z,74.55
2023-05-21T19:39:56.199Z,75.82
2023-05-21T19:42:26.122Z,75.98
2023-05-21T19:44:56.540Z,76.18
2023-05-21T19:47:24.884Z,76.15
2023-05-21T19:49:52.744Z,75.78
2023-05-21T19:52:20.880Z,76.30
2023-05-21T19:54:49.434Z,76.92
2023-05-21T19:57:17.365Z,77.35
2023-05-21T19:59:45.976Z,77.71
2023-05-21T20:02:17.029Z,78.18
2023-05-21T20:04:45.074Z,78.91
2023-05-21T20:07:13.343Z,79.20
2023-05-21T20:09:41.284Z,79.71
2023-05-21T20:12:09.412Z,80.27
2023-05-21T20:14:36.618Z,80.57
2023-05-21T20:17:05.830Z,80.97
2023-05-21T20:19:33.342Z,80.88
2023-05-21T20:22:00.444Z,81.18
2023-05-21T20:24:27.663Z,81.40
2023-05-21T20:26:55.110Z,81.10
2023-05-21T20:29:22.209Z,81.21
2023-05-21T20:31:49.188Z,81.36
2023-05-21T20:34:17.642Z,80.70
2023-05-21T20:36:44.758Z,80.67
2023-05-21T20:39:12.211Z,80.13
2023-05-21T20:41:39.686Z,79.63
2023-05-21T20:44:06.898Z,79.37
2023-05-21T20:46:38.266Z,79.10
2023-05-21T20:49:06.005Z,78.68
2023-05-21T20:51:33.411Z,78.67
2023-05-21T20:54:00.447Z,78.85
2023-05-21T20:56:40.802Z,78.89
2023-05-21T20:59:11.108Z,78.77
2023-05-21T21:01:39.304Z,79.02
2023-05-21T21:04:06.626Z,78.99
2023-05-21T21:06:34.017Z,78.58
2023-05-21T21:09:01.197Z,77.96
2023-05-21T21:11:28.341Z,77.27
2023-05-21T21:13:55.460Z,77.01
2023-05-21T21:16:22.415Z,77.23
2023-05-21T21:18:49.779Z,77.96
2023-05-21T21:21:16.839Z,77.41
2023-05-21T21:23:43.996Z,77.81
2023-05-21T21:26:11.120Z,78.38
2023-05-21T21:28:38.048Z,79.06
2023-05-21T21:31:04.942Z,79.52
2023-05-21T21:33:32.565Z,80.16
2023-05-21T21:36:00.455Z,80.29
2023-05-21T21:38:27.537Z,79.97
2023-05-21T21:40:54.864Z,80.12
2023-05-21T21:43:21.697Z,81.19
2023-05-21T21:45:48.859Z,81.97
2023-05-21T21:48:16.717Z,83.04
2023-05-21T21:50:43.730Z,82.75
2023-05-21T21:53:12.708Z,81.89
2023-05-21T21:55:39.739Z,82.18
2023-05-21T21:58:07.106Z,83.19
2023-05-21T22:00:34.104Z,83.29
2023-05-21T22:03:01.224Z,83.92
2023-05-21T22:05:30.812Z,83.18
2023-05-21T22:07:57.754Z,83.53
2023-05-21T22:10:24.664Z,84.34
2023-05-21T22:12:51.625Z,85.34
2023-05-21T22:15:28.710Z,85.80
2023-05-21T22:17:55.940Z,86.22
2023-05-21T22:20:23.448Z,86.43
2023-05-21T22:22:50.772Z,85.46
2023-05-21T22:25:18.444Z,87.07
2023-05-21T22:27:45.436Z,87.27
2023-05-21T22:30:12.657Z,87.26
2023-05-21T22:32:40.132Z,86.77
2023-05-21T22:35:07.903Z,87.01
2023-05-21T22:37:34.845Z,87.14
2023-05-21T22:40:01.875Z,88.00
2023-05-21T22:42:28.879Z,87.95
2023-05-21T22:44:56.004Z,87.75
2023-05-21T22:47:23.990Z,87.69
2023-05-21T22:49:53.846Z,88.51
2023-05-21T22:52:24.245Z,88.88
2023-05-21T22:54:55.058Z,88.58
2023-05-21T22:57:22.217Z,89.50
2023-05-21T22:59:49.312Z,89.91
2023-05-21T23:02:16.710Z,89.06
2023-05-21T23:04:44.705Z,89.43
2023-05-21T23:07:12.473Z,89.47
2023-05-21T23:09:39.878Z,88.51
2023-05-21T23:12:07.454Z,89.11
2023-05-21T23:14:34.508Z,89.28
2023-05-21T23:17:02.487Z,89.46
2023-05-21T23:19:30.493Z,89.20
2023-05-21T23:21:58.112Z,88.65
2023-05-21T23:24:25.127Z,88.60
2023-05-21T23:26:52.707Z,87.66
2023-05-21T23:29:20.033Z,88.32
2023-05-21T23:31:47.286Z,87.15
2023-05-21T23:34:14.472Z,86.12
2023-05-21T23:36:41.527Z,86.71
2023-05-21T23:39:09.512Z,87.27
2023-05-21T23:41:36.589Z,87.60
2023-05-21T23:44:03.728Z,89.05
2023-05-21T23:46:30.789Z,89.44
2023-05-21T23:48:57.811Z,89.84
2023-05-21T23:51:24.911Z,89.83
2023-05-21T23:53:52.229Z,90.12
2023-05-21T23:56:19.245Z,90.71
2023-05-21T23:58:46.354Z,91.32
